sensor_id;sensor_type;location;lat;lon;timestamp;noise_LAeq;noise_LA_min;noise_LA_max;noise_LA01;noise_LA95
72686;Laerm;61365;52.162;4.500;2024-01-25T00:00:20;44.07;35.61;58.65;;
72686;Laerm;61365;52.162;4.500;2024-01-25T00:02:46;44.01;38.31;56.83;;
72686;Laerm;61365;52.162;4.500;2024-01-25T00:05:13;43.94;39.20;56.14;;
72686;Laerm;61365;52.162;4.500;2024-01-25T00:07:48;44.03;38.70;58.64;;
72686;Laerm;61365;52.162;4.500;2024-01-25T00:10:16;44.10;37.28;57.93;;
72686;Laerm;61365;52.162;4.500;2024-01-25T00:12:43;44.01;38.59;57.16;;
72686;Laerm;61365;52.162;4.500;2024-01-25T00:15:10;43.98;37.36;57.52;;
72686;Laerm;61365;52.162;4.500;2024-01-25T00:17:37;43.96;36.48;58.40;;
72686;Laerm;61365;52.162;4.500;2024-01-25T00:20:04;43.90;37.23;59.29;;
72686;Laerm;61365;52.162;4.500;2024-01-25T00:22:30;44.02;38.95;58.39;;
72686;Laerm;61365;52.162;4.500;2024-01-25T00:24:57;44.03;37.03;56.43;;
72686;Laerm;61365;52.162;4.500;2024-01-25T00:27:24;44.11;36.91;58.64;;
72686;Laerm;61365;52.162;4.500;2024-01-25T00:29:50;44.01;38.87;57.96;;
72686;Laerm;61365;52.162;4.500;2024-01-25T00:32:16;44.13;37.15;57.95;;
72686;Laerm;61365;52.162;4.500;2024-01-25T00:34:42;43.98;37.74;57.79;;
72686;Laerm;61365;52.162;4.500;2024-01-25T00:37:09;43.94;39.05;58.37;;
72686;Laerm;61365;52.162;4.500;2024-01-25T00:39:36;43.89;38.58;58.44;;
72686;Laerm;61365;52.162;4.500;2024-01-25T00:42:04;43.86;35.90;57.95;;
72686;Laerm;61365;52.162;4.500;2024-01-25T00:44:31;43.72;37.57;53.79;;
72686;Laerm;61365;52.162;4.500;2024-01-25T00:46:58;43.82;36.82;58.25;;
72686;Laerm;61365;52.162;4.500;2024-01-25T00:49:24;43.87;37.24;56.91;;
72686;Laerm;61365;52.162;4.500;2024-01-25T00:51:58;43.97;37.21;57.29;;
72686;Laerm;61365;52.162;4.500;2024-01-25T00:54:25;43.87;38.16;59.64;;
72686;Laerm;61365;52.162;4.500;2024-01-25T00:56:52;43.86;39.37;57.07;;
72686;Laerm;61365;52.162;4.500;2024-01-25T00:59:19;43.96;36.59;58.77;;
72686;Laerm;61365;52.162;4.500;2024-01-25T01:01:47;43.91;35.49;57.49;;
72686;Laerm;61365;52.162;4.500;2024-01-25T01:04:14;43.99;38.65;58.90;;
72686;Laerm;61365;52.162;4.500;2024-01-25T01:06:41;43.89;38.18;56.73;;
72686;Laerm;61365;52.162;4.500;2024-01-25T01:09:07;44.08;38.32;58.91;;
72686;Laerm;61365;52.162;4.500;2024-01-25T01:11:33;43.97;37.56;56.64;;
72686;Laerm;61365;52.162;4.500;2024-01-25T01:13:59;43.89;35.53;57.78;;
72686;Laerm;61365;52.162;4.500;2024-01-25T01:16:26;44.19;36.46;59.26;;
72686;Laerm;61365;52.162;4.500;2024-01-25T01:18:52;44.14;35.05;58.02;;
72686;Laerm;61365;52.162;4.500;2024-01-25T01:21:18;44.08;35.92;56.80;;
72686;Laerm;61365;52.162;4.500;2024-01-25T01:23:44;44.06;35.97;57.90;;
72686;Laerm;61365;52.162;4.500;2024-01-25T01:26:11;44.05;37.08;59.28;;
72686;Laerm;61365;52.162;4.500;2024-01-25T01:28:37;44.01;37.32;58.28;;
72686;Laerm;61365;52.162;4.500;2024-01-25T01:31:03;44.01;40.84;57.32;;
72686;Laerm;61365;52.162;4.500;2024-01-25T01:33:29;43.93;37.74;56.27;;
72686;Laerm;61365;52.162;4.500;2024-01-25T01:36:04;44.06;36.56;58.92;;
72686;Laerm;61365;52.162;4.500;2024-01-25T01:38:30;43.98;39.00;57.04;;
72686;Laerm;61365;52.162;4.500;2024-01-25T01:40:57;44.01;35.72;58.74;;
72686;Laerm;61365;52.162;4.500;2024-01-25T01:43:23;44.08;37.00;58.39;;
72686;Laerm;61365;52.162;4.500;2024-01-25T01:45:49;43.99;36.78;59.62;;
72686;Laerm;61365;52.162;4.500;2024-01-25T01:48:16;43.96;36.05;58.42;;
72686;Laerm;61365;52.162;4.500;2024-01-25T01:50:44;43.97;36.79;59.28;;
72686;Laerm;61365;52.162;4.500;2024-01-25T01:53:11;44.02;40.27;57.24;;
72686;Laerm;61365;52.162;4.500;2024-01-25T01:55:39;44.02;36.41;58.56;;
72686;Laerm;61365;52.162;4.500;2024-01-25T01:58:07;44.11;36.11;58.96;;
72686;Laerm;61365;52.162;4.500;2024-01-25T02:00:33;44.05;36.43;59.93;;
72686;Laerm;61365;52.162;4.500;2024-01-25T02:03:03;44.12;36.26;59.72;;
72686;Laerm;61365;52.162;4.500;2024-01-25T02:05:29;43.98;39.05;57.75;;
72686;Laerm;61365;52.162;4.500;2024-01-25T02:07:55;44.00;39.17;59.10;;
72686;Laerm;61365;52.162;4.500;2024-01-25T02:10:21;44.11;37.86;59.37;;
72686;Laerm;61365;52.162;4.500;2024-01-25T02:12:47;44.14;36.14;58.33;;
72686;Laerm;61365;52.162;4.500;2024-01-25T02:15:13;44.04;37.33;58.80;;
72686;Laerm;61365;52.162;4.500;2024-01-25T02:17:40;44.05;35.75;59.32;;
72686;Laerm;61365;52.162;4.500;2024-01-25T02:20:07;44.07;38.68;58.77;;
72686;Laerm;61365;52.162;4.500;2024-01-25T02:22:33;44.07;38.49;59.25;;
72686;Laerm;61365;52.162;4.500;2024-01-25T02:24:59;44.12;38.90;59.32;;
72686;Laerm;61365;52.162;4.500;2024-01-25T02:27:25;44.02;37.15;59.96;;
72686;Laerm;61365;52.162;4.500;2024-01-25T02:29:51;43.96;38.54;57.09;;
72686;Laerm;61365;52.162;4.500;2024-01-25T02:32:17;44.10;37.47;59.23;;
72686;Laerm;61365;52.162;4.500;2024-01-25T02:34:43;44.01;37.27;59.15;;
72686;Laerm;61365;52.162;4.500;2024-01-25T02:37:10;44.08;37.75;59.46;;
72686;Laerm;61365;52.162;4.500;2024-01-25T02:39:37;44.02;37.07;58.23;;
72686;Laerm;61365;52.162;4.500;2024-01-25T02:42:04;43.97;39.53;57.37;;
72686;Laerm;61365;52.162;4.500;2024-01-25T02:44:30;44.00;37.93;58.68;;
72686;Laerm;61365;52.162;4.500;2024-01-25T02:46:56;43.88;39.46;58.97;;
72686;Laerm;61365;52.162;4.500;2024-01-25T02:49:22;44.05;36.70;58.26;;
72686;Laerm;61365;52.162;4.500;2024-01-25T02:51:50;44.09;38.07;59.42;;
72686;Laerm;61365;52.162;4.500;2024-01-25T02:54:16;44.14;39.35;59.08;;
72686;Laerm;61365;52.162;4.500;2024-01-25T02:56:42;44.10;38.53;54.43;;
72686;Laerm;61365;52.162;4.500;2024-01-25T02:59:09;44.11;39.74;57.50;;
72686;Laerm;61365;52.162;4.500;2024-01-25T03:01:40;44.10;38.15;60.62;;
72686;Laerm;61365;52.162;4.500;2024-01-25T03:04:06;44.04;36.95;56.14;;
72686;Laerm;61365;52.162;4.500;2024-01-25T03:06:32;44.16;37.38;58.24;;
72686;Laerm;61365;52.162;4.500;2024-01-25T03:08:58;44.18;37.05;58.97;;
72686;Laerm;61365;52.162;4.500;2024-01-25T03:11:25;44.05;37.29;59.47;;
72686;Laerm;61365;52.162;4.500;2024-01-25T03:13:51;44.23;36.65;57.92;;
72686;Laerm;61365;52.162;4.500;2024-01-25T03:16:17;44.18;38.05;58.60;;
72686;Laerm;61365;52.162;4.500;2024-01-25T03:18:43;44.01;38.60;56.34;;
72686;Laerm;61365;52.162;4.500;2024-01-25T03:21:09;44.11;36.20;58.76;;
72686;Laerm;61365;52.162;4.500;2024-01-25T03:23:35;44.13;35.62;58.37;;
72686;Laerm;61365;52.162;4.500;2024-01-25T03:26:02;44.14;38.74;59.56;;
72686;Laerm;61365;52.162;4.500;2024-01-25T03:28:28;44.10;36.56;57.44;;
72686;Laerm;61365;52.162;4.500;2024-01-25T03:30:54;44.16;38.34;58.71;;
72686;Laerm;61365;52.162;4.500;2024-01-25T03:33:20;44.11;39.02;57.78;;
72686;Laerm;61365;52.162;4.500;2024-01-25T03:35:46;44.11;38.92;58.99;;
72686;Laerm;61365;52.162;4.500;2024-01-25T03:38:12;44.12;39.68;57.72;;
72686;Laerm;61365;52.162;4.500;2024-01-25T03:40:39;44.03;38.53;55.28;;
72686;Laerm;61365;52.162;4.500;2024-01-25T03:43:06;44.17;35.87;59.56;;
72686;Laerm;61365;52.162;4.500;2024-01-25T03:45:32;44.24;38.27;57.92;;
72686;Laerm;61365;52.162;4.500;2024-01-25T03:47:58;44.19;36.18;57.88;;
72686;Laerm;61365;52.162;4.500;2024-01-25T03:50:24;44.24;36.26;57.68;;
72686;Laerm;61365;52.162;4.500;2024-01-25T03:52:50;44.26;37.88;56.75;;
72686;Laerm;61365;52.162;4.500;2024-01-25T03:55:16;44.35;38.84;58.23;;
72686;Laerm;61365;52.162;4.500;2024-01-25T03:57:44;44.39;37.04;59.87;;
72686;Laerm;61365;52.162;4.500;2024-01-25T04:00:11;44.28;37.26;59.04;;
72686;Laerm;61365;52.162;4.500;2024-01-25T04:02:37;44.28;37.65;57.98;;
72686;Laerm;61365;52.162;4.500;2024-01-25T04:05:04;44.27;37.68;58.75;;
72686;Laerm;61365;52.162;4.500;2024-01-25T04:07:30;44.27;38.10;59.39;;
72686;Laerm;61365;52.162;4.500;2024-01-25T04:09:56;44.26;36.94;58.91;;
72686;Laerm;61365;52.162;4.500;2024-01-25T04:12:22;44.26;38.98;59.05;;
72686;Laerm;61365;52.162;4.500;2024-01-25T04:14:50;44.29;35.43;59.40;;
72686;Laerm;61365;52.162;4.500;2024-01-25T04:17:16;44.45;35.83;59.31;;
72686;Laerm;61365;52.162;4.500;2024-01-25T04:19:43;44.37;37.45;58.82;;
72686;Laerm;61365;52.162;4.500;2024-01-25T04:22:09;44.35;37.75;59.09;;
72686;Laerm;61365;52.162;4.500;2024-01-25T04:24:35;44.39;35.88;58.87;;
72686;Laerm;61365;52.162;4.500;2024-01-25T04:27:01;44.22;38.06;58.23;;
72686;Laerm;61365;52.162;4.500;2024-01-25T04:29:27;44.25;36.92;56.72;;
72686;Laerm;61365;52.162;4.500;2024-01-25T04:31:53;44.30;38.83;59.15;;
72686;Laerm;61365;52.162;4.500;2024-01-25T04:34:19;44.35;35.65;59.47;;
72686;Laerm;61365;52.162;4.500;2024-01-25T04:36:45;44.23;38.44;57.55;;
72686;Laerm;61365;52.162;4.500;2024-01-25T04:39:11;44.28;38.90;56.91;;
72686;Laerm;61365;52.162;4.500;2024-01-25T04:41:37;44.40;37.18;58.13;;
72686;Laerm;61365;52.162;4.500;2024-01-25T04:44:04;44.33;36.28;59.23;;
72686;Laerm;61365;52.162;4.500;2024-01-25T04:46:30;44.28;36.39;58.75;;
72686;Laerm;61365;52.162;4.500;2024-01-25T04:49:02;44.35;35.47;59.09;;
72686;Laerm;61365;52.162;4.500;2024-01-25T04:51:29;44.27;35.50;57.92;;
72686;Laerm;61365;52.162;4.500;2024-01-25T04:53:55;44.35;37.53;58.87;;
72686;Laerm;61365;52.162;4.500;2024-01-25T04:56:21;44.32;37.91;58.42;;
72686;Laerm;61365;52.162;4.500;2024-01-25T04:58:47;44.18;39.62;56.27;;
72686;Laerm;61365;52.162;4.500;2024-01-25T05:01:13;44.45;36.31;58.16;;
72686;Laerm;61365;52.162;4.500;2024-01-25T05:03:39;44.36;37.96;57.00;;
72686;Laerm;61365;52.162;4.500;2024-01-25T05:06:06;44.41;37.32;58.51;;
72686;Laerm;61365;52.162;4.500;2024-01-25T05:08:32;44.27;36.61;57.31;;
72686;Laerm;61365;52.162;4.500;2024-01-25T05:10:58;44.33;36.97;59.91;;
72686;Laerm;61365;52.162;4.500;2024-01-25T05:13:24;44.21;36.63;58.20;;
72686;Laerm;61365;52.162;4.500;2024-01-25T05:15:50;44.36;36.08;58.64;;
72686;Laerm;61365;52.162;4.500;2024-01-25T05:18:16;44.33;35.74;58.93;;
72686;Laerm;61365;52.162;4.500;2024-01-25T05:20:42;44.24;38.93;59.96;;
72686;Laerm;61365;52.162;4.500;2024-01-25T05:23:08;44.25;37.12;59.62;;
72686;Laerm;61365;52.162;4.500;2024-01-25T05:25:34;44.37;37.65;59.27;;
72686;Laerm;61365;52.162;4.500;2024-01-25T05:28:00;44.35;38.73;58.45;;
72686;Laerm;61365;52.162;4.500;2024-01-25T05:30:27;44.38;36.07;59.43;;
72686;Laerm;61365;52.162;4.500;2024-01-25T05:32:53;44.26;38.03;57.91;;
72686;Laerm;61365;52.162;4.500;2024-01-25T05:35:20;44.31;38.15;58.48;;
72686;Laerm;61365;52.162;4.500;2024-01-25T05:37:46;44.36;36.12;57.80;;
72686;Laerm;61365;52.162;4.500;2024-01-25T05:40:12;44.31;38.82;58.89;;
72686;Laerm;61365;52.162;4.500;2024-01-25T05:42:39;44.24;38.34;58.66;;
72686;Laerm;61365;52.162;4.500;2024-01-25T05:45:06;44.34;37.97;57.25;;
72686;Laerm;61365;52.162;4.500;2024-01-25T05:47:33;44.42;37.25;58.63;;
72686;Laerm;61365;52.162;4.500;2024-01-25T05:50:00;44.39;36.08;58.76;;
72686;Laerm;61365;52.162;4.500;2024-01-25T05:52:26;44.35;38.52;59.04;;
72686;Laerm;61365;52.162;4.500;2024-01-25T05:54:53;44.23;39.38;56.02;;
72686;Laerm;61365;52.162;4.500;2024-01-25T05:57:19;44.27;36.49;58.11;;
72686;Laerm;61365;52.162;4.500;2024-01-25T05:59:46;44.14;37.99;57.54;;
72686;Laerm;61365;52.162;4.500;2024-01-25T06:02:13;44.23;38.74;57.56;;
72686;Laerm;61365;52.162;4.500;2024-01-25T06:04:39;44.11;39.61;55.70;;
72686;Laerm;61365;52.162;4.500;2024-01-25T06:07:05;44.23;38.11;58.74;;
72686;Laerm;61365;52.162;4.500;2024-01-25T06:09:31;44.19;38.26;57.78;;
72686;Laerm;61365;52.162;4.500;2024-01-25T06:12:00;44.26;37.80;59.42;;
72686;Laerm;61365;52.162;4.500;2024-01-25T06:14:27;44.14;38.16;58.52;;
72686;Laerm;61365;52.162;4.500;2024-01-25T06:16:53;44.38;35.97;59.46;;
72686;Laerm;61365;52.162;4.500;2024-01-25T06:19:19;44.25;35.42;58.35;;
72686;Laerm;61365;52.162;4.500;2024-01-25T06:21:45;44.20;37.52;58.21;;
72686;Laerm;61365;52.162;4.500;2024-01-25T06:24:11;44.37;35.96;57.48;;
72686;Laerm;61365;52.162;4.500;2024-01-25T06:26:38;44.18;35.26;56.36;;
72686;Laerm;61365;52.162;4.500;2024-01-25T06:29:04;44.18;37.26;59.66;;
72686;Laerm;61365;52.162;4.500;2024-01-25T06:31:30;44.16;40.09;56.87;;
72686;Laerm;61365;52.162;4.500;2024-01-25T06:33:56;44.25;38.24;58.40;;
72686;Laerm;61365;52.162;4.500;2024-01-25T06:36:23;44.17;40.21;57.21;;
72686;Laerm;61365;52.162;4.500;2024-01-25T06:38:49;44.14;37.75;59.35;;
72686;Laerm;61365;52.162;4.500;2024-01-25T06:41:15;44.20;36.53;58.40;;
72686;Laerm;61365;52.162;4.500;2024-01-25T06:43:42;44.29;38.15;57.63;;
72686;Laerm;61365;52.162;4.500;2024-01-25T06:46:08;44.26;39.06;59.13;;
72686;Laerm;61365;52.162;4.500;2024-01-25T06:48:34;44.30;36.58;59.41;;
72686;Laerm;61365;52.162;4.500;2024-01-25T06:51:01;44.39;37.18;59.73;;
72686;Laerm;61365;52.162;4.500;2024-01-25T06:53:28;44.35;38.39;58.84;;
72686;Laerm;61365;52.162;4.500;2024-01-25T06:55:54;44.32;39.36;58.97;;
72686;Laerm;61365;52.162;4.500;2024-01-25T06:58:20;44.30;37.50;55.44;;
72686;Laerm;61365;52.162;4.500;2024-01-25T07:00:46;44.31;37.24;57.55;;
72686;Laerm;61365;52.162;4.500;2024-01-25T07:03:12;44.48;36.14;58.80;;
72686;Laerm;61365;52.162;4.500;2024-01-25T07:05:39;44.37;37.54;57.92;;
72686;Laerm;61365;52.162;4.500;2024-01-25T07:08:05;44.26;36.35;60.08;;
72686;Laerm;61365;52.162;4.500;2024-01-25T07:10:31;44.34;37.73;59.53;;
72686;Laerm;61365;52.162;4.500;2024-01-25T07:12:57;44.35;36.17;58.83;;
72686;Laerm;61365;52.162;4.500;2024-01-25T07:15:23;44.32;37.69;58.44;;
72686;Laerm;61365;52.162;4.500;2024-01-25T07:17:50;44.28;38.19;58.68;;
72686;Laerm;61365;52.162;4.500;2024-01-25T07:20:16;44.31;37.55;58.56;;
72686;Laerm;61365;52.162;4.500;2024-01-25T07:22:42;44.25;38.11;58.40;;
72686;Laerm;61365;52.162;4.500;2024-01-25T07:25:08;44.22;39.51;57.71;;
72686;Laerm;61365;52.162;4.500;2024-01-25T07:27:34;44.27;38.68;57.23;;
72686;Laerm;61365;52.162;4.500;2024-01-25T07:30:00;44.25;38.47;58.59;;
72686;Laerm;61365;52.162;4.500;2024-01-25T07:32:26;44.23;36.57;58.94;;
72686;Laerm;61365;52.162;4.500;2024-01-25T07:34:53;44.25;36.99;58.06;;
72686;Laerm;61365;52.162;4.500;2024-01-25T07:37:19;44.17;37.47;59.00;;
72686;Laerm;61365;52.162;4.500;2024-01-25T07:39:45;44.30;37.34;57.11;;
72686;Laerm;61365;52.162;4.500;2024-01-25T07:42:12;44.24;38.42;57.27;;
72686;Laerm;61365;52.162;4.500;2024-01-25T07:44:38;44.25;38.26;57.51;;
72686;Laerm;61365;52.162;4.500;2024-01-25T07:47:04;44.29;37.30;59.72;;
72686;Laerm;61365;52.162;4.500;2024-01-25T07:49:30;44.36;37.12;58.95;;
72686;Laerm;61365;52.162;4.500;2024-01-25T07:51:57;44.24;37.45;58.30;;
72686;Laerm;61365;52.162;4.500;2024-01-25T07:54:24;44.20;37.36;58.17;;
72686;Laerm;61365;52.162;4.500;2024-01-25T07:56:50;44.22;38.19;57.55;;
72686;Laerm;61365;52.162;4.500;2024-01-25T07:59:16;44.22;37.84;58.38;;
72686;Laerm;61365;52.162;4.500;2024-01-25T08:01:42;44.26;37.01;59.57;;
72686;Laerm;61365;52.162;4.500;2024-01-25T08:04:09;44.42;37.23;59.67;;
72686;Laerm;61365;52.162;4.500;2024-01-25T08:06:35;44.18;38.55;57.50;;
72686;Laerm;61365;52.162;4.500;2024-01-25T08:09:01;44.26;38.50;58.57;;
72686;Laerm;61365;52.162;4.500;2024-01-25T08:11:28;44.25;36.63;59.48;;
72686;Laerm;61365;52.162;4.500;2024-01-25T08:13:54;44.31;37.49;59.92;;
72686;Laerm;61365;52.162;4.500;2024-01-25T08:16:21;44.33;37.31;59.42;;
72686;Laerm;61365;52.162;4.500;2024-01-25T08:18:47;44.28;36.66;57.96;;
72686;Laerm;61365;52.162;4.500;2024-01-25T08:21:14;44.21;35.85;56.06;;
72686;Laerm;61365;52.162;4.500;2024-01-25T08:23:40;44.46;35.80;59.69;;
72686;Laerm;61365;52.162;4.500;2024-01-25T08:26:06;44.38;36.90;58.86;;
72686;Laerm;61365;52.162;4.500;2024-01-25T08:28:35;44.46;37.69;60.80;;
72686;Laerm;61365;52.162;4.500;2024-01-25T08:31:04;44.43;35.25;59.55;;
72686;Laerm;61365;52.162;4.500;2024-01-25T08:33:31;44.34;38.19;57.94;;
72686;Laerm;61365;52.162;4.500;2024-01-25T08:35:57;44.47;37.70;57.63;;
72686;Laerm;61365;52.162;4.500;2024-01-25T08:38:23;44.50;37.13;58.96;;
72686;Laerm;61365;52.162;4.500;2024-01-25T08:40:49;44.37;39.88;56.20;;
72686;Laerm;61365;52.162;4.500;2024-01-25T08:43:15;44.49;38.73;58.46;;
72686;Laerm;61365;52.162;4.500;2024-01-25T08:45:41;44.44;39.56;57.81;;
72686;Laerm;61365;52.162;4.500;2024-01-25T08:48:07;44.42;38.50;57.13;;
72686;Laerm;61365;52.162;4.500;2024-01-25T08:50:35;44.51;36.98;58.00;;
72686;Laerm;61365;52.162;4.500;2024-01-25T08:53:01;44.52;37.81;57.97;;
72686;Laerm;61365;52.162;4.500;2024-01-25T08:55:28;44.57;36.63;58.31;;
72686;Laerm;61365;52.162;4.500;2024-01-25T08:57:54;44.41;37.73;57.01;;
72686;Laerm;61365;52.162;4.500;2024-01-25T09:00:20;44.47;39.73;58.24;;
72686;Laerm;61365;52.162;4.500;2024-01-25T09:02:46;44.43;37.65;58.27;;
72686;Laerm;61365;52.162;4.500;2024-01-25T09:05:12;44.36;38.97;59.79;;
72686;Laerm;61365;52.162;4.500;2024-01-25T09:07:39;44.26;39.36;56.74;;
72686;Laerm;61365;52.162;4.500;2024-01-25T09:10:05;44.32;37.74;59.55;;
72686;Laerm;61365;52.162;4.500;2024-01-25T09:12:31;44.25;36.65;56.86;;
72686;Laerm;61365;52.162;4.500;2024-01-25T09:14:57;44.28;36.50;55.92;;
72686;Laerm;61365;52.162;4.500;2024-01-25T09:17:24;44.40;36.48;58.31;;
72686;Laerm;61365;52.162;4.500;2024-01-25T09:19:50;44.44;36.12;58.79;;
72686;Laerm;61365;52.162;4.500;2024-01-25T09:22:17;44.22;40.24;54.22;;
72686;Laerm;61365;52.162;4.500;2024-01-25T09:24:46;44.31;36.79;59.61;;
72686;Laerm;61365;52.162;4.500;2024-01-25T09:27:13;44.45;38.39;60.30;;
72686;Laerm;61365;52.162;4.500;2024-01-25T09:29:39;44.44;35.61;59.06;;
72686;Laerm;61365;52.162;4.500;2024-01-25T09:32:07;44.49;37.25;59.22;;
72686;Laerm;61365;52.162;4.500;2024-01-25T09:34:38;44.38;37.34;57.83;;
72686;Laerm;61365;52.162;4.500;2024-01-25T09:37:05;44.28;39.85;55.16;;
72686;Laerm;61365;52.162;4.500;2024-01-25T09:39:31;44.39;38.55;57.11;;
72686;Laerm;61365;52.162;4.500;2024-01-25T09:41:58;44.43;38.82;59.39;;
72686;Laerm;61365;52.162;4.500;2024-01-25T09:44:25;44.36;37.32;59.01;;
72686;Laerm;61365;52.162;4.500;2024-01-25T09:46:51;44.42;36.92;57.57;;
72686;Laerm;61365;52.162;4.500;2024-01-25T09:49:17;44.53;37.12;58.80;;
72686;Laerm;61365;52.162;4.500;2024-01-25T09:51:44;44.53;38.48;58.24;;
72686;Laerm;61365;52.162;4.500;2024-01-25T09:54:10;44.43;37.30;57.90;;
72686;Laerm;61365;52.162;4.500;2024-01-25T09:56:39;44.39;36.07;59.18;;
72686;Laerm;61365;52.162;4.500;2024-01-25T09:59:08;44.46;35.79;59.46;;
72686;Laerm;61365;52.162;4.500;2024-01-25T10:01:35;44.41;36.44;58.65;;
72686;Laerm;61365;52.162;4.500;2024-01-25T10:04:01;44.30;38.39;57.53;;
72686;Laerm;61365;52.162;4.500;2024-01-25T10:06:27;44.37;35.50;58.83;;
72686;Laerm;61365;52.162;4.500;2024-01-25T10:09:19;44.29;37.78;56.84;;
72686;Laerm;61365;52.162;4.500;2024-01-25T10:11:45;44.26;38.15;55.79;;
72686;Laerm;61365;52.162;4.500;2024-01-25T10:14:11;44.34;39.20;57.26;;
72686;Laerm;61365;52.162;4.500;2024-01-25T10:16:37;44.34;36.84;58.63;;
72686;Laerm;61365;52.162;4.500;2024-01-25T10:19:06;44.26;39.93;55.13;;
72686;Laerm;61365;52.162;4.500;2024-01-25T10:21:35;44.47;35.76;57.95;;
72686;Laerm;61365;52.162;4.500;2024-01-25T10:24:01;44.39;39.71;56.79;;
72686;Laerm;61365;52.162;4.500;2024-01-25T10:26:29;44.37;39.58;57.97;;
72686;Laerm;61365;52.162;4.500;2024-01-25T10:28:55;44.46;35.75;58.74;;
72686;Laerm;61365;52.162;4.500;2024-01-25T10:31:24;44.36;40.04;54.55;;
72686;Laerm;61365;52.162;4.500;2024-01-25T10:33:54;44.43;37.94;58.22;;
72686;Laerm;61365;52.162;4.500;2024-01-25T10:36:21;44.52;37.97;58.66;;
72686;Laerm;61365;52.162;4.500;2024-01-25T10:38:49;44.38;40.63;51.76;;
72686;Laerm;61365;52.162;4.500;2024-01-25T10:41:16;44.46;38.04;58.99;;
72686;Laerm;61365;52.162;4.500;2024-01-25T10:43:43;44.41;38.32;56.75;;
72686;Laerm;61365;52.162;4.500;2024-01-25T10:46:10;44.46;36.45;58.39;;
72686;Laerm;61365;52.162;4.500;2024-01-25T10:48:37;44.39;36.61;58.70;;
72686;Laerm;61365;52.162;4.500;2024-01-25T10:51:04;44.30;36.90;59.30;;
72686;Laerm;61365;52.162;4.500;2024-01-25T10:53:32;44.44;36.83;59.55;;
72686;Laerm;61365;52.162;4.500;2024-01-25T10:56:01;44.42;37.90;58.78;;
72686;Laerm;61365;52.162;4.500;2024-01-25T10:58:31;44.39;37.84;56.57;;
72686;Laerm;61365;52.162;4.500;2024-01-25T11:00:59;44.35;39.78;57.27;;
72686;Laerm;61365;52.162;4.500;2024-01-25T11:03:29;44.36;38.16;58.12;;
72686;Laerm;61365;52.162;4.500;2024-01-25T11:06:08;44.51;36.85;58.61;;
72686;Laerm;61365;52.162;4.500;2024-01-25T11:08:36;44.37;37.98;58.79;;
72686;Laerm;61365;52.162;4.500;2024-01-25T11:11:08;44.36;37.40;58.39;;
72686;Laerm;61365;52.162;4.500;2024-01-25T11:13:35;44.41;36.98;59.19;;
72686;Laerm;61365;52.162;4.500;2024-01-25T11:16:13;44.32;40.60;51.00;;
72686;Laerm;61365;52.162;4.500;2024-01-25T11:18:57;44.47;37.19;59.93;;
72686;Laerm;61365;52.162;4.500;2024-01-25T11:21:47;44.41;37.55;58.89;;
72686;Laerm;61365;52.162;4.500;2024-01-25T11:24:21;44.32;40.18;56.72;;
72686;Laerm;61365;52.162;4.500;2024-01-25T11:26:49;44.41;35.62;59.09;;
72686;Laerm;61365;52.162;4.500;2024-01-25T11:29:19;44.40;37.76;58.86;;
72686;Laerm;61365;52.162;4.500;2024-01-25T11:31:49;44.43;37.50;59.64;;
72686;Laerm;61365;52.162;4.500;2024-01-25T11:34:16;44.23;38.61;57.28;;
72686;Laerm;61365;52.162;4.500;2024-01-25T11:36:44;44.30;37.75;59.06;;
72686;Laerm;61365;52.162;4.500;2024-01-25T11:39:11;44.24;39.18;56.84;;
72686;Laerm;61365;52.162;4.500;2024-01-25T11:41:38;44.31;35.57;57.48;;
72686;Laerm;61365;52.162;4.500;2024-01-25T11:44:04;44.24;37.74;58.18;;
72686;Laerm;61365;52.162;4.500;2024-01-25T11:46:31;44.36;36.76;58.98;;
72686;Laerm;61365;52.162;4.500;2024-01-25T11:48:58;44.26;40.50;55.74;;
72686;Laerm;61365;52.162;4.500;2024-01-25T11:51:24;44.45;37.34;58.84;;
72686;Laerm;61365;52.162;4.500;2024-01-25T11:53:51;44.30;37.76;59.71;;
72686;Laerm;61365;52.162;4.500;2024-01-25T11:56:20;44.33;35.52;59.25;;
72686;Laerm;61365;52.162;4.500;2024-01-25T11:58:47;44.35;38.62;58.47;;
72686;Laerm;61365;52.162;4.500;2024-01-25T12:01:14;44.29;36.94;58.05;;
72686;Laerm;61365;52.162;4.500;2024-01-25T12:03:41;44.28;36.59;58.86;;
72686;Laerm;61365;52.162;4.500;2024-01-25T12:06:08;44.32;39.35;55.96;;
72686;Laerm;61365;52.162;4.500;2024-01-25T12:08:37;44.33;37.67;57.68;;
72686;Laerm;61365;52.162;4.500;2024-01-25T12:11:08;44.28;35.85;59.52;;
72686;Laerm;61365;52.162;4.500;2024-01-25T12:13:41;44.16;38.08;54.78;;
72686;Laerm;61365;52.162;4.500;2024-01-25T12:16:08;44.23;39.60;53.87;;
72686;Laerm;61365;52.162;4.500;2024-01-25T12:18:35;44.32;37.39;57.25;;
72686;Laerm;61365;52.162;4.500;2024-01-25T12:21:04;44.41;37.37;59.35;;
72686;Laerm;61365;52.162;4.500;2024-01-25T12:23:35;44.29;35.23;59.66;;
72686;Laerm;61365;52.162;4.500;2024-01-25T12:26:03;44.41;38.40;57.36;;
72686;Laerm;61365;52.162;4.500;2024-01-25T12:28:30;44.29;39.61;51.93;;
72686;Laerm;61365;52.162;4.500;2024-01-25T12:31:02;44.41;35.32;58.55;;
72686;Laerm;61365;52.162;4.500;2024-01-25T12:33:29;44.25;36.34;57.94;;
72686;Laerm;61365;52.162;4.500;2024-01-25T12:35:56;43.98;39.31;55.99;;
72686;Laerm;61365;52.162;4.500;2024-01-25T12:38:22;44.07;37.52;59.02;;
72686;Laerm;61365;52.162;4.500;2024-01-25T12:40:50;44.11;35.49;58.36;;
72686;Laerm;61365;52.162;4.500;2024-01-25T12:43:16;44.00;37.89;57.41;;
72686;Laerm;61365;52.162;4.500;2024-01-25T12:45:43;44.05;38.07;56.49;;
72686;Laerm;61365;52.162;4.500;2024-01-25T12:48:10;44.24;37.26;59.24;;
72686;Laerm;61365;52.162;4.500;2024-01-25T12:50:37;44.03;38.77;57.13;;
72686;Laerm;61365;52.162;4.500;2024-01-25T12:53:04;44.01;39.81;55.64;;
72686;Laerm;61365;52.162;4.500;2024-01-25T12:55:31;44.11;36.71;56.06;;
72686;Laerm;61365;52.162;4.500;2024-01-25T12:57:58;44.13;38.18;58.68;;
72686;Laerm;61365;52.162;4.500;2024-01-25T13:00:24;44.04;38.30;58.85;;
72686;Laerm;61365;52.162;4.500;2024-01-25T13:02:51;44.05;36.89;58.15;;
72686;Laerm;61365;52.162;4.500;2024-01-25T13:05:17;44.15;38.49;59.39;;
72686;Laerm;61365;52.162;4.500;2024-01-25T13:07:43;43.99;35.44;57.41;;
72686;Laerm;61365;52.162;4.500;2024-01-25T13:10:09;44.01;36.59;58.04;;
72686;Laerm;61365;52.162;4.500;2024-01-25T13:12:38;43.97;38.48;54.71;;
72686;Laerm;61365;52.162;4.500;2024-01-25T13:15:05;44.04;39.44;58.36;;
72686;Laerm;61365;52.162;4.500;2024-01-25T13:17:33;43.99;38.58;58.54;;
72686;Laerm;61365;52.162;4.500;2024-01-25T13:20:00;44.10;36.52;58.67;;
72686;Laerm;61365;52.162;4.500;2024-01-25T13:22:26;43.98;38.30;57.89;;
72686;Laerm;61365;52.162;4.500;2024-01-25T13:24:53;44.03;37.04;56.00;;
72686;Laerm;61365;52.162;4.500;2024-01-25T13:27:19;44.12;38.51;57.85;;
72686;Laerm;61365;52.162;4.500;2024-01-25T13:29:45;44.04;36.72;56.65;;
72686;Laerm;61365;52.162;4.500;2024-01-25T13:32:11;44.13;36.15;56.87;;
72686;Laerm;61365;52.162;4.500;2024-01-25T13:34:37;44.05;36.02;58.03;;
72686;Laerm;61365;52.162;4.500;2024-01-25T13:37:03;43.98;38.45;52.56;;
72686;Laerm;61365;52.162;4.500;2024-01-25T13:39:29;44.04;39.75;56.74;;
72686;Laerm;61365;52.162;4.500;2024-01-25T13:41:55;44.21;39.38;57.53;;